Time;durP1;ratioP1;P1;durP2;ratioP2;P2;SDS_P1;SDS_P2;PMS_P1;PMS_P2;Temp;Humidity;BMP_temperature;BMP_pressure;BME280_temperature;BME280_humidity;BME280_pressure;Samples;Min_cycle;Max_cycle;Signal;HPM_P1;HPM_P2
2022/01/07 00:02:18;;;;;;;6.38;3.38;;;4.80;99.90;;;;;;5052963;28;20205;-84
2022/01/07 00:04:46;;;;;;;3.35;3.05;;;4.80;99.90;;;;;;5059156;28;20201;-86
2022/01/07 00:07:14;;;;;;;4.10;2.80;;;4.80;99.90;;;;;;5066374;28;20208;-86
2022/01/07 00:09:43;;;;;;;3.85;3.00;;;4.90;99.90;;;;;;5071703;28;20201;-86
2022/01/07 00:12:11;;;;;;;4.60;2.58;;;4.70;99.90;;;;;;5063704;28;20195;-85
2022/01/07 00:14:41;;;;;;;7.03;3.03;;;4.70;99.90;;;;;;5074267;28;20205;-84
2022/01/07 00:17:09;;;;;;;10.25;4.35;;;4.70;99.90;;;;;;5062688;28;20218;-85
2022/01/07 00:19:37;;;;;;;4.35;3.42;;;4.80;99.90;;;;;;5060882;28;20205;-84
2022/01/07 00:22:06;;;;;;;7.82;3.58;;;4.70;99.90;;;;;;5080807;28;20197;-85
2022/01/07 00:24:35;;;;;;;5.13;3.17;;;4.70;99.90;;;;;;5066143;28;20227;-84
2022/01/07 00:27:03;;;;;;;5.88;2.88;;;4.80;99.90;;;;;;5060641;28;20205;-84
2022/01/07 00:29:54;;;;;;;8.55;4.97;;;4.80;99.90;;;;;;5065749;28;20186;-84
2022/01/07 00:32:22;;;;;;;5.28;3.08;;;4.70;99.90;;;;;;5064734;28;20202;-84
2022/01/07 00:34:50;;;;;;;6.57;4.78;;;4.80;99.90;;;;;;5055444;28;20217;-84
2022/01/07 00:37:19;;;;;;;3.33;2.85;;;4.80;99.90;;;;;;5057796;28;20221;-83
2022/01/07 00:39:48;;;;;;;7.00;3.60;;;4.80;99.90;;;;;;5065640;28;20596;-83
2022/01/07 00:42:17;;;;;;;7.30;3.17;;;4.50;99.90;;;;;;5061380;28;20216;-83
2022/01/07 00:44:45;;;;;;;4.07;3.08;;;4.50;99.90;;;;;;5049561;28;20209;-83
2022/01/07 00:47:16;;;;;;;3.65;3.10;;;4.50;99.90;;;;;;5060236;28;20201;-84
2022/01/07 00:49:45;;;;;;;7.63;3.45;;;4.50;99.90;;;;;;5062609;28;20591;-82
2022/01/07 00:52:14;;;;;;;4.32;3.35;;;4.40;99.90;;;;;;5058017;28;20211;-84
2022/01/07 00:54:42;;;;;;;9.50;3.72;;;4.40;99.90;;;;;;5062451;28;20209;-83
2022/01/07 00:57:10;;;;;;;6.70;3.20;;;4.40;99.90;;;;;;5078215;28;20731;-83
2022/01/07 00:59:39;;;;;;;7.68;3.45;;;4.30;99.90;;;;;;5070287;28;20256;-84
2022/01/07 01:02:08;;;;;;;8.55;3.25;;;4.40;99.90;;;;;;5072827;28;20209;-82
2022/01/07 01:04:44;;;;;;;3.97;3.58;;;4.30;99.90;;;;;;5059318;28;20288;-83
2022/01/07 01:07:13;;;;;;;8.65;3.50;;;4.30;99.90;;;;;;5072928;28;20198;-84
2022/01/07 01:09:42;;;;;;;5.35;3.08;;;4.30;99.90;;;;;;5075680;28;20296;-82
2022/01/07 01:12:11;;;;;;;6.05;2.78;;;4.20;99.90;;;;;;5072769;28;20582;-83
2022/01/07 01:14:40;;;;;;;2.83;2.30;;;4.20;99.90;;;;;;5065528;28;20702;-84
2022/01/07 01:17:09;;;;;;;3.70;2.80;;;4.20;99.90;;;;;;5067238;28;20222;-84
2022/01/07 01:19:38;;;;;;;4.35;2.95;;;4.20;99.90;;;;;;5068604;28;20210;-84
2022/01/07 01:22:09;;;;;;;8.75;2.92;;;4.20;99.90;;;;;;5062945;28;20201;-82
2022/01/07 01:24:37;;;;;;;3.88;3.22;;;4.20;99.90;;;;;;5068353;28;20230;-83
2022/01/07 01:27:05;;;;;;;2.90;2.60;;;4.20;99.90;;;;;;5068661;28;20198;-84
2022/01/07 01:29:34;;;;;;;5.75;3.22;;;4.30;99.90;;;;;;5071601;28;20202;-83
2022/01/07 01:32:03;;;;;;;5.93;3.08;;;4.30;99.90;;;;;;5064922;28;20248;-82
2022/01/07 01:34:32;;;;;;;3.58;2.80;;;4.30;99.90;;;;;;5061680;28;20647;-83
2022/01/07 01:37:00;;;;;;;4.60;3.05;;;4.40;99.90;;;;;;5060118;28;20791;-84
2022/01/07 01:39:29;;;;;;;3.10;2.65;;;4.50;99.90;;;;;;5066606;28;20673;-84
2022/01/07 01:41:58;;;;;;;3.42;3.13;;;4.50;99.90;;;;;;5074775;28;20286;-84
2022/01/07 01:44:27;;;;;;;4.43;3.63;;;4.30;99.90;;;;;;5053138;28;20234;-85
2022/01/07 01:46:56;;;;;;;10.55;4.30;;;4.60;99.90;;;;;;5069269;28;20194;-84
2022/01/07 01:49:24;;;;;;;5.85;3.20;;;4.40;99.90;;;;;;5069881;28;20199;-85
2022/01/07 01:51:53;;;;;;;3.65;2.90;;;4.30;99.90;;;;;;5078147;28;20198;-84
2022/01/07 01:54:21;;;;;;;3.85;3.35;;;4.30;99.90;;;;;;5059508;28;20215;-84
2022/01/07 01:56:51;;;;;;;6.55;3.83;;;4.40;99.90;;;;;;5063484;28;20222;-85
2022/01/07 01:59:24;;;;;;;5.95;3.13;;;4.40;99.90;;;;;;5053746;28;20199;-85
2022/01/07 02:01:53;;;;;;;3.55;3.15;;;4.40;99.90;;;;;;5067356;28;20446;-85
2022/01/07 02:04:22;;;;;;;2.65;2.45;;;4.60;99.90;;;;;;5059449;28;20301;-84
2022/01/07 02:06:51;;;;;;;5.38;3.13;;;4.40;99.90;;;;;;5078930;28;20199;-84
2022/01/07 02:09:24;;;;;;;5.30;4.20;;;4.30;99.90;;;;;;5061690;28;20211;-84
2022/01/07 02:11:53;;;;;;;5.20;2.80;;;4.30;99.90;;;;;;5081177;28;20201;-82
2022/01/07 02:14:22;;;;;;;4.53;3.17;;;4.60;99.90;;;;;;5067112;28;20789;-82
2022/01/07 02:16:50;;;;;;;6.85;2.75;;;4.20;99.90;;;;;;5057723;28;20219;-83
2022/01/07 02:19:18;;;;;;;3.92;3.08;;;4.20;99.90;;;;;;5065234;28;20195;-84
2022/01/07 02:21:47;;;;;;;2.88;2.58;;;4.20;99.90;;;;;;5073943;28;20209;-84
2022/01/07 02:24:16;;;;;;;9.00;3.58;;;4.40;99.90;;;;;;5073431;28;20230;-83
2022/01/07 02:26:47;;;;;;;6.57;3.15;;;4.30;99.90;;;;;;5074515;28;20705;-84
2022/01/07 02:29:15;;;;;;;7.18;3.92;;;4.10;99.90;;;;;;5069612;28;20213;-84
2022/01/07 02:31:43;;;;;;;3.50;2.90;;;3.80;99.90;;;;;;5068997;28;20193;-83
2022/01/07 02:34:11;;;;;;;3.92;2.58;;;3.50;99.90;;;;;;5059754;28;20216;-84
2022/01/07 02:36:39;;;;;;;5.10;3.15;;;3.60;99.90;;;;;;5067673;28;20218;-84
2022/01/07 02:39:09;;;;;;;4.20;3.83;;;3.70;99.90;;;;;;5056853;28;20191;-83
2022/01/07 02:41:37;;;;;;;3.63;2.17;;;3.70;99.90;;;;;;5070148;28;20731;-84
2022/01/07 02:44:06;;;;;;;5.80;3.90;;;3.80;99.90;;;;;;5059447;28;20278;-85
2022/01/07 02:46:34;;;;;;;3.67;3.15;;;3.90;99.90;;;;;;5078658;28;20194;-84
2022/01/07 02:49:08;;;;;;;5.13;2.85;;;4.20;99.90;;;;;;5062798;28;20241;-84
2022/01/07 02:51:37;;;;;;;3.50;2.05;;;4.10;99.90;;;;;;5072849;28;20669;-84
2022/01/07 02:54:06;;;;;;;3.13;2.80;;;4.10;99.90;;;;;;5050977;28;20258;-84
2022/01/07 02:56:37;;;;;;;4.13;2.65;;;4.20;99.90;;;;;;5066980;28;20972;-83
2022/01/07 02:59:07;;;;;;;5.55;2.20;;;3.90;99.90;;;;;;5062014;28;20252;-83
2022/01/07 03:01:36;;;;;;;3.63;2.67;;;3.80;99.90;;;;;;5061551;28;20672;-85
2022/01/07 03:04:05;;;;;;;3.03;2.08;;;4.10;99.90;;;;;;5062027;28;20584;-83
2022/01/07 03:06:34;;;;;;;3.63;2.85;;;3.90;99.90;;;;;;5052427;28;20206;-83
2022/01/07 03:09:04;;;;;;;3.55;2.47;;;4.20;99.90;;;;;;5058283;28;20187;-84
2022/01/07 03:11:33;;;;;;;2.95;2.00;;;4.10;99.90;;;;;;5075387;28;20611;-83
2022/01/07 03:14:02;;;;;;;8.60;3.97;;;4.10;99.90;;;;;;5069567;28;20279;-84
2022/01/07 03:16:30;;;;;;;2.75;2.45;;;4.10;99.90;;;;;;5069348;28;20216;-85
2022/01/07 03:18:59;;;;;;;4.88;2.50;;;4.00;99.90;;;;;;5057591;28;20198;-85
2022/01/07 03:21:27;;;;;;;2.35;2.00;;;4.10;99.90;;;;;;5071208;28;20206;-83
2022/01/07 03:23:55;;;;;;;3.22;2.75;;;4.10;99.90;;;;;;5069836;28;20229;-83
2022/01/07 03:26:24;;;;;;;3.00;1.85;;;4.00;99.90;;;;;;5064473;28;20198;-84
2022/01/07 03:28:52;;;;;;;3.25;2.42;;;3.80;99.90;;;;;;5065149;28;20194;-83
2022/01/07 03:31:22;;;;;;;6.47;3.00;;;3.40;99.90;;;;;;5071313;28;20735;-84
2022/01/07 03:33:50;;;;;;;3.08;2.25;;;3.50;99.90;;;;;;5061479;28;20259;-84
2022/01/07 03:36:18;;;;;;;5.25;2.22;;;3.60;99.90;;;;;;5078067;28;20286;-83
2022/01/07 03:38:46;;;;;;;3.63;2.15;;;3.70;99.90;;;;;;5070686;28;20216;-83
2022/01/07 03:41:14;;;;;;;4.22;2.75;;;3.80;99.90;;;;;;5059163;28;20208;-83
2022/01/07 03:43:43;;;;;;;3.50;1.88;;;3.70;99.90;;;;;;5067646;28;20221;-83
2022/01/07 03:46:11;;;;;;;2.20;1.83;;;3.70;99.90;;;;;;5061711;28;20185;-85
2022/01/07 03:48:41;;;;;;;4.00;2.67;;;3.70;99.90;;;;;;5049777;28;20669;-83
2022/01/07 03:51:09;;;;;;;2.95;2.50;;;3.70;99.90;;;;;;5065560;28;20204;-85
2022/01/07 03:53:37;;;;;;;5.00;2.63;;;3.70;99.90;;;;;;5053865;28;20234;-84
2022/01/07 03:56:06;;;;;;;2.45;2.25;;;3.80;99.90;;;;;;5054760;28;20207;-84
2022/01/07 03:58:34;;;;;;;4.10;2.50;;;3.70;99.90;;;;;;5049941;28;20733;-84
2022/01/07 04:01:02;;;;;;;3.38;2.40;;;3.70;99.90;;;;;;5055332;28;20194;-84
2022/01/07 04:03:31;;;;;;;4.55;2.17;;;3.60;99.90;;;;;;5058793;28;20292;-83
2022/01/07 04:06:00;;;;;;;4.55;2.22;;;3.40;99.90;;;;;;5056643;28;20212;-84
2022/01/07 04:08:28;;;;;;;3.65;2.95;;;3.50;99.90;;;;;;5056444;28;20204;-84
2022/01/07 04:10:57;;;;;;;4.15;2.45;;;3.20;99.90;;;;;;5051908;28;20223;-84
2022/01/07 04:13:25;;;;;;;2.70;2.10;;;3.00;99.90;;;;;;5053217;28;20231;-84
2022/01/07 04:15:53;;;;;;;4.10;2.97;;;3.10;99.90;;;;;;5063891;28;20204;-84
2022/01/07 04:18:22;;;;;;;5.32;3.00;;;3.20;99.90;;;;;;5067899;28;20220;-84
2022/01/07 04:20:50;;;;;;;4.00;2.95;;;3.30;99.90;;;;;;5048724;28;20193;-84
2022/01/07 04:23:19;;;;;;;6.50;2.60;;;3.30;99.90;;;;;;5055441;28;20245;-83
2022/01/07 04:25:47;;;;;;;5.10;2.35;;;3.10;99.90;;;;;;5053427;28;20671;-84
2022/01/07 04:28:16;;;;;;;4.75;2.92;;;3.10;99.90;;;;;;5064375;28;20248;-84
2022/01/07 04:30:45;;;;;;;3.10;2.10;;;2.90;99.90;;;;;;5055895;28;20200;-84
2022/01/07 04:33:20;;;;;;;4.30;2.75;;;3.00;99.90;;;;;;5066576;28;20274;-83
2022/01/07 04:35:49;;;;;;;2.80;2.15;;;3.00;99.90;;;;;;5061888;28;20287;-83
2022/01/07 04:38:19;;;;;;;4.75;2.65;;;2.60;99.90;;;;;;5059933;28;20222;-83
2022/01/07 04:40:47;;;;;;;4.93;2.63;;;2.60;99.90;;;;;;5062053;28;20585;-83
2022/01/07 04:43:15;;;;;;;4.35;2.80;;;2.70;99.90;;;;;;5065101;28;20853;-84
2022/01/07 04:45:44;;;;;;;5.70;2.97;;;2.70;99.90;;;;;;5063219;28;20196;-84
2022/01/07 04:48:12;;;;;;;4.88;2.95;;;2.70;99.90;;;;;;5059058;28;20218;-84
2022/01/07 04:50:41;;;;;;;3.78;2.40;;;2.70;99.90;;;;;;5071688;28;20205;-83
2022/01/07 04:53:09;;;;;;;3.50;2.80;;;2.90;99.90;;;;;;5059152;28;20215;-84
2022/01/07 04:55:38;;;;;;;6.38;3.13;;;3.00;99.90;;;;;;5053120;28;20260;-84
2022/01/07 04:58:09;;;;;;;4.18;2.45;;;2.60;99.90;;;;;;5066439;28;20304;-83
2022/01/07 05:00:38;;;;;;;2.20;2.05;;;2.70;99.90;;;;;;5054720;28;20558;-81
2022/01/07 05:03:06;;;;;;;3.80;2.00;;;3.20;99.90;;;;;;5057963;28;20229;-83
2022/01/07 05:05:34;;;;;;;5.15;2.30;;;3.00;99.90;;;;;;5062218;28;20198;-84
2022/01/07 05:08:03;;;;;;;3.97;2.10;;;2.70;99.90;;;;;;5059091;28;20239;-84
2022/01/07 05:10:32;;;;;;;3.97;2.65;;;2.40;99.90;;;;;;5056550;28;20270;-84
2022/01/07 05:13:01;;;;;;;5.75;2.25;;;2.70;99.90;;;;;;5051918;28;20315;-84
2022/01/07 05:15:30;;;;;;;4.65;2.53;;;2.80;99.90;;;;;;5062928;28;20561;-84
2022/01/07 05:17:58;;;;;;;4.18;2.28;;;3.10;99.90;;;;;;5082473;28;20213;-83
2022/01/07 05:20:26;;;;;;;3.10;2.15;;;2.90;99.90;;;;;;5060508;28;20199;-85
2022/01/07 05:22:55;;;;;;;3.75;2.95;;;3.10;99.90;;;;;;5078870;28;20560;-84
2022/01/07 05:25:23;;;;;;;4.47;2.67;;;2.90;99.90;;;;;;5061278;28;20198;-82
2022/01/07 05:27:51;;;;;;;3.47;2.70;;;2.90;99.90;;;;;;5081172;28;20209;-83
2022/01/07 05:30:20;;;;;;;3.38;2.72;;;2.80;99.90;;;;;;5053206;28;20212;-84
2022/01/07 05:32:49;;;;;;;4.60;2.85;;;2.60;99.90;;;;;;5059376;28;20326;-84
2022/01/07 05:35:17;;;;;;;3.38;2.70;;;2.50;99.90;;;;;;5056871;28;20628;-84
2022/01/07 05:37:45;;;;;;;6.68;4.15;;;2.90;99.90;;;;;;5072937;28;20201;-84
2022/01/07 05:40:14;;;;;;;2.92;2.63;;;2.70;99.90;;;;;;5056805;28;20198;-83
2022/01/07 05:42:42;;;;;;;8.57;3.80;;;2.60;99.90;;;;;;5051883;28;20233;-84
2022/01/07 05:45:11;;;;;;;4.50;3.10;;;3.00;99.90;;;;;;5057383;28;20557;-84
2022/01/07 05:47:40;;;;;;;8.40;3.80;;;2.90;99.90;;;;;;5064717;28;20199;-84
2022/01/07 05:50:10;;;;;;;7.47;3.78;;;2.80;99.90;;;;;;5069099;28;20206;-85
2022/01/07 05:52:38;;;;;;;7.15;3.13;;;2.70;99.90;;;;;;5051764;28;20228;-84
2022/01/07 05:55:07;;;;;;;5.50;2.97;;;2.70;99.90;;;;;;5059966;28;20208;-85
2022/01/07 05:57:35;;;;;;;9.27;3.42;;;2.70;99.90;;;;;;5058547;28;20224;-83
2022/01/07 06:00:07;;;;;;;6.95;3.35;;;2.60;99.90;;;;;;5063450;28;20655;-83
2022/01/07 06:02:35;;;;;;;3.72;2.55;;;2.60;99.90;;;;;;5064271;28;20209;-83
2022/01/07 06:05:06;;;;;;;4.15;2.65;;;3.20;99.90;;;;;;5062118;28;20203;-85
2022/01/07 06:07:34;;;;;;;5.40;2.95;;;3.10;99.90;;;;;;5059004;28;20209;-85
2022/01/07 06:10:02;;;;;;;8.02;3.83;;;3.10;99.90;;;;;;5064841;28;20207;-84
2022/01/07 06:12:31;;;;;;;5.43;3.40;;;3.20;99.90;;;;;;5050822;28;20212;-85
2022/01/07 06:14:59;;;;;;;4.35;2.90;;;3.20;99.90;;;;;;5068639;28;20194;-85
2022/01/07 06:17:27;;;;;;;7.00;3.75;;;3.20;99.90;;;;;;5073022;28;20209;-85
2022/01/07 06:19:55;;;;;;;5.40;2.97;;;3.20;99.90;;;;;;5065183;28;20622;-84
2022/01/07 06:22:25;;;;;;;6.65;2.92;;;3.10;99.90;;;;;;5066336;28;20201;-84
2022/01/07 06:24:53;;;;;;;4.80;2.90;;;3.00;99.90;;;;;;5065196;28;20198;-84
2022/01/07 06:27:21;;;;;;;3.67;2.85;;;3.00;99.90;;;;;;5068916;28;20203;-83
2022/01/07 06:29:49;;;;;;;4.93;3.22;;;3.00;99.90;;;;;;5070925;28;20207;-84
2022/01/07 06:32:18;;;;;;;5.78;3.13;;;2.90;99.90;;;;;;5059647;28;20256;-85
2022/01/07 06:34:46;;;;;;;7.78;3.25;;;2.80;99.90;;;;;;5067510;28;20592;-83
2022/01/07 06:37:14;;;;;;;4.03;2.38;;;2.80;99.90;;;;;;5067852;28;20198;-84
2022/01/07 06:39:44;;;;;;;5.93;3.63;;;2.90;99.90;;;;;;5056458;28;20221;-83
2022/01/07 06:42:12;;;;;;;7.25;3.38;;;3.00;99.90;;;;;;5061285;28;20198;-83
2022/01/07 06:44:40;;;;;;;5.43;3.45;;;3.30;99.90;;;;;;5065053;28;20272;-85
2022/01/07 06:47:08;;;;;;;7.50;3.92;;;2.90;99.90;;;;;;5058629;28;20205;-85
2022/01/07 06:49:36;;;;;;;6.85;3.30;;;3.00;99.90;;;;;;5056790;28;20194;-84
2022/01/07 06:52:06;;;;;;;6.00;3.72;;;3.40;99.90;;;;;;5059842;28;20232;-84
2022/01/07 06:54:34;;;;;;;4.00;2.58;;;3.20;99.90;;;;;;5055482;28;20710;-84
2022/01/07 06:57:04;;;;;;;2.95;2.50;;;3.30;99.90;;;;;;5059362;28;20197;-84
2022/01/07 06:59:32;;;;;;;5.80;3.20;;;3.40;99.90;;;;;;5053257;28;20216;-84
2022/01/07 07:02:01;;;;;;;5.18;2.65;;;3.50;99.90;;;;;;5053298;28;20229;-85
2022/01/07 07:04:29;;;;;;;6.45;3.42;;;3.80;99.90;;;;;;5059085;28;20272;-84
2022/01/07 07:06:58;;;;;;;6.40;3.80;;;3.60;99.90;;;;;;5057282;28;20226;-84
2022/01/07 07:09:26;;;;;;;6.03;3.47;;;3.50;99.90;;;;;;5063663;28;20263;-84
2022/01/07 07:11:54;;;;;;;4.82;2.50;;;3.50;99.90;;;;;;5064429;28;20202;-84
2022/01/07 07:14:24;;;;;;;6.00;3.03;;;3.10;99.90;;;;;;5068728;28;20217;-85
2022/01/07 07:16:52;;;;;;;6.85;3.15;;;3.00;99.90;;;;;;5063568;28;20242;-82
2022/01/07 07:19:21;;;;;;;5.40;2.85;;;3.00;99.90;;;;;;5055885;28;20221;-83
2022/01/07 07:21:50;;;;;;;4.47;2.50;;;2.80;99.90;;;;;;5068753;28;20205;-83
2022/01/07 07:24:18;;;;;;;5.75;3.17;;;2.70;99.90;;;;;;5072663;28;20223;-84
2022/01/07 07:26:46;;;;;;;5.70;3.33;;;2.70;99.90;;;;;;5055186;28;20222;-81
2022/01/07 07:29:14;;;;;;;5.93;2.45;;;3.10;99.90;;;;;;5072753;28;20200;-84
2022/01/07 07:31:49;;;;;;;6.55;3.80;;;2.90;99.90;;;;;;5063686;28;20214;-81
2022/01/07 07:34:33;;;;;;;5.43;2.75;;;2.70;99.90;;;;;;5059916;28;20290;-82
2022/01/07 07:37:02;;;;;;;4.35;2.60;;;2.30;99.90;;;;;;5058678;28;20291;-82
2022/01/07 07:39:31;;;;;;;7.60;3.97;;;2.30;99.90;;;;;;5059708;28;20223;-83
2022/01/07 07:41:59;;;;;;;5.72;3.35;;;2.40;99.90;;;;;;5058446;28;20690;-82
2022/01/07 07:44:27;;;;;;;5.20;2.50;;;2.50;99.90;;;;;;5055865;28;20217;-84
2022/01/07 07:46:58;;;;;;;4.22;3.70;;;2.50;99.90;;;;;;5051598;28;20197;-83
2022/01/07 07:49:26;;;;;;;6.72;3.45;;;2.60;99.90;;;;;;5057677;28;20210;-84
2022/01/07 07:51:54;;;;;;;4.70;3.00;;;2.50;99.90;;;;;;5055631;28;20209;-84
2022/01/07 07:54:23;;;;;;;3.60;3.28;;;2.30;99.90;;;;;;5055732;28;20216;-84
2022/01/07 07:56:51;;;;;;;7.13;3.22;;;2.30;99.90;;;;;;5056049;28;20210;-83
2022/01/07 07:59:22;;;;;;;5.10;3.55;;;2.40;99.90;;;;;;5062875;28;20191;-83
2022/01/07 08:01:50;;;;;;;5.80;2.88;;;2.70;99.90;;;;;;5076022;28;20208;-84
2022/01/07 08:04:21;;;;;;;5.97;3.35;;;2.50;99.90;;;;;;5055725;28;20218;-84
2022/01/07 08:06:50;;;;;;;7.65;2.72;;;2.30;99.90;;;;;;5065405;28;20220;-83
2022/01/07 08:09:18;;;;;;;6.47;3.10;;;2.30;99.90;;;;;;5057978;28;20442;-82
2022/01/07 08:11:52;;;;;;;8.73;3.50;;;2.60;99.90;;;;;;5072952;28;20217;-83
2022/01/07 08:17:07;;;;;;;6.15;2.97;;;2.30;99.90;;;;;;5056794;28;20239;-76
2022/01/07 08:19:37;;;;;;;5.78;3.63;;;2.50;99.90;;;;;;5061426;28;20265;-76
2022/01/07 08:22:06;;;;;;;8.65;3.85;;;2.70;99.90;;;;;;5076025;28;20197;-83
2022/01/07 08:24:34;;;;;;;3.45;2.45;;;2.90;99.90;;;;;;5069422;28;20219;-83
2022/01/07 08:27:03;;;;;;;7.15;3.42;;;3.00;99.90;;;;;;5065268;28;20217;-80
2022/01/07 08:29:51;;;;;;;6.80;3.65;;;2.80;99.90;;;;;;5053496;28;20194;-81
2022/01/07 08:35:08;;;;;;;4.90;3.55;;;2.70;99.90;;;;;;5060152;28;20205;-82
2022/01/07 08:37:36;;;;;;;4.75;2.70;;;2.70;99.90;;;;;;5061820;28;20238;-82
2022/01/07 08:40:05;;;;;;;8.57;4.32;;;2.70;99.90;;;;;;5058050;28;20205;-82
2022/01/07 08:42:34;;;;;;;10.40;3.53;;;2.90;99.90;;;;;;5063029;28;20282;-80
2022/01/07 08:45:02;;;;;;;6.18;3.35;;;3.10;99.90;;;;;;5068234;28;20247;-82
2022/01/07 08:47:30;;;;;;;4.07;2.88;;;3.10;99.90;;;;;;5051692;28;20206;-81
2022/01/07 08:49:59;;;;;;;5.22;3.35;;;3.00;99.90;;;;;;5062266;28;20309;-82
2022/01/07 08:52:28;;;;;;;6.65;2.85;;;2.80;99.90;;;;;;5057843;28;20213;-82
2022/01/07 08:54:57;;;;;;;5.30;3.42;;;2.90;99.90;;;;;;5052253;28;20637;-82
2022/01/07 08:57:25;;;;;;;8.65;4.25;;;3.10;99.90;;;;;;5056752;28;20201;-82
2022/01/07 08:59:53;;;;;;;6.38;3.05;;;3.10;99.90;;;;;;5057426;28;20205;-82
2022/01/07 09:02:21;;;;;;;7.32;3.92;;;2.90;99.90;;;;;;5069414;28;20284;-82
2022/01/07 09:04:49;;;;;;;5.03;4.15;;;3.00;99.90;;;;;;5062116;28;20198;-83
2022/01/07 09:07:18;;;;;;;7.78;4.80;;;3.00;99.90;;;;;;5064598;28;20439;-78
2022/01/07 09:09:47;;;;;;;8.75;4.10;;;3.20;99.90;;;;;;5070115;28;20501;-82
2022/01/07 09:12:16;;;;;;;6.90;3.72;;;3.40;99.90;;;;;;5067516;28;20547;-81
2022/01/07 09:14:45;;;;;;;8.88;3.53;;;3.30;99.90;;;;;;5060100;28;20201;-81
2022/01/07 09:17:13;;;;;;;7.50;4.97;;;3.20;99.90;;;;;;5062959;28;20450;-81
2022/01/07 09:19:41;;;;;;;5.45;3.90;;;3.40;99.90;;;;;;5059237;28;20452;-80
2022/01/07 09:22:10;;;;;;;6.13;3.25;;;3.50;99.90;;;;;;5068444;28;20213;-81
2022/01/07 09:24:38;;;;;;;8.82;3.10;;;3.20;99.90;;;;;;5066120;28;20560;-81
2022/01/07 09:27:07;;;;;;;4.65;3.00;;;3.30;99.90;;;;;;5061944;28;20229;-81
2022/01/07 09:29:36;;;;;;;4.30;2.90;;;3.40;99.90;;;;;;5058526;28;20283;-81
2022/01/07 09:32:05;;;;;;;3.13;2.83;;;3.10;99.90;;;;;;5065086;28;20557;-81
2022/01/07 09:34:33;;;;;;;3.90;2.90;;;3.00;99.90;;;;;;5069139;28;20211;-81
2022/01/07 09:37:04;;;;;;;5.22;2.30;;;3.10;99.90;;;;;;5068909;28;20200;-81
2022/01/07 09:39:32;;;;;;;5.15;2.63;;;2.90;99.90;;;;;;5069404;28;20196;-82
2022/01/07 09:42:01;;;;;;;8.32;2.97;;;3.10;99.90;;;;;;5067424;28;20260;-83
2022/01/07 09:44:31;;;;;;;5.10;2.97;;;3.20;99.90;;;;;;5081650;28;20230;-81
2022/01/07 09:46:59;;;;;;;7.20;2.75;;;3.20;99.90;;;;;;5061516;28;20206;-82
2022/01/07 09:49:33;;;;;;;5.68;2.83;;;3.20;99.90;;;;;;5074218;28;20489;-82
2022/01/07 09:52:02;;;;;;;4.82;2.70;;;2.90;99.90;;;;;;5078445;28;20214;-81
2022/01/07 09:54:30;;;;;;;2.95;2.00;;;2.80;99.90;;;;;;5062806;28;20317;-84
2022/01/07 09:56:59;;;;;;;5.95;4.05;;;3.00;99.90;;;;;;5062732;28;20275;-84
2022/01/07 09:59:27;;;;;;;3.60;3.00;;;3.30;99.90;;;;;;5069442;28;20208;-82
2022/01/07 10:01:58;;;;;;;4.70;2.85;;;3.20;99.90;;;;;;5062066;28;20225;-84
2022/01/07 10:04:28;;;;;;;3.50;2.45;;;3.30;99.90;;;;;;5065084;28;20225;-84
2022/01/07 10:07:13;;;;;;;8.20;3.50;;;3.50;99.90;;;;;;5059871;28;20190;-83
2022/01/07 10:09:56;;;;;;;3.95;3.38;;;3.50;99.90;;;;;;5064672;28;20234;-84
2022/01/07 10:12:25;;;;;;;5.15;2.60;;;3.30;99.90;;;;;;5062324;28;20288;-83
2022/01/07 10:15:15;;;;;;;4.60;3.03;;;3.50;99.90;;;;;;5058263;28;20225;-83
2022/01/07 10:17:59;;;;;;;5.68;2.88;;;3.60;99.90;;;;;;5070194;28;20569;-83
2022/01/07 10:20:29;;;;;;;5.90;3.53;;;3.30;99.90;;;;;;5061303;28;20208;-84
2022/01/07 10:23:01;;;;;;;3.78;2.15;;;3.20;99.90;;;;;;5058565;28;20218;-81
2022/01/07 10:25:31;;;;;;;5.25;2.47;;;3.20;99.90;;;;;;5071228;28;20201;-84
2022/01/07 10:28:04;;;;;;;6.13;3.40;;;3.10;99.90;;;;;;5060827;28;20209;-83
2022/01/07 10:30:38;;;;;;;4.28;2.83;;;3.40;99.90;;;;;;5074247;28;20192;-83
2022/01/07 10:33:27;;;;;;;3.40;2.45;;;3.70;99.90;;;;;;5063832;28;20219;-83
2022/01/07 10:35:56;;;;;;;5.53;2.95;;;3.70;99.90;;;;;;5061355;28;20195;-82
2022/01/07 10:38:27;;;;;;;4.20;2.35;;;3.80;99.90;;;;;;5057239;28;20200;-83
2022/01/07 10:40:59;;;;;;;6.85;2.60;;;3.70;99.90;;;;;;5068398;28;20229;-82
2022/01/07 10:43:32;;;;;;;7.93;3.17;;;4.10;99.90;;;;;;5068849;28;20279;-82
2022/01/07 10:46:12;;;;;;;4.22;3.10;;;3.80;99.90;;;;;;5054387;28;20211;-83
2022/01/07 10:48:46;;;;;;;5.72;3.75;;;4.00;99.90;;;;;;5058223;28;20584;-83
2022/01/07 10:51:15;;;;;;;2.67;2.20;;;3.40;99.90;;;;;;5061382;28;20236;-82
2022/01/07 10:53:50;;;;;;;4.30;2.40;;;3.10;1.00;;;;;;5061719;28;20219;-81
2022/01/07 10:56:20;;;;;;;6.07;3.97;;;3.10;1.00;;;;;;5063943;28;20216;-83
2022/01/07 10:59:03;;;;;;;5.00;2.65;;;3.00;1.00;;;;;;5064649;28;20243;-77
2022/01/07 11:01:43;;;;;;;8.63;4.60;;;3.10;32.70;;;;;;5054055;28;20447;-81
2022/01/07 11:04:16;;;;;;;5.53;3.35;;;3.10;40.70;;;;;;5084534;28;20214;-84
2022/01/07 11:06:45;;;;;;;7.75;3.47;;;3.30;1.00;;;;;;5063055;28;20200;-82
2022/01/07 11:09:15;;;;;;;3.53;2.70;;;3.40;1.00;;;;;;5059276;28;20196;-82
2022/01/07 11:11:46;;;;;;;3.50;2.97;;;3.50;1.00;;;;;;5057878;28;20191;-82
2022/01/07 11:14:19;;;;;;;2.88;2.35;;;3.30;1.00;;;;;;5057679;28;20228;-82
2022/01/07 11:16:47;;;;;;;2.33;1.98;;;3.30;22.10;;;;;;5052320;28;20209;-83
2022/01/07 11:19:21;;;;;;;5.22;2.75;;;3.30;29.00;;;;;;5064662;28;20203;-83
2022/01/07 11:21:52;;;;;;;3.35;2.53;;;3.30;63.50;;;;;;5063975;28;20772;-82
2022/01/07 11:24:36;;;;;;;6.88;2.80;;;3.20;99.90;;;;;;5063183;28;20252;-83
2022/01/07 11:27:07;;;;;;;5.72;3.65;;;3.50;91.40;;;;;;5063520;28;20203;-83
2022/01/07 11:29:39;;;;;;;3.85;2.38;;;3.70;1.00;;;;;;5066760;28;20203;-83
2022/01/07 11:32:35;;;;;;;7.53;3.30;;;3.50;1.00;;;;;;5074302;28;20197;-84
2022/01/07 11:35:49;;;;;;;5.22;2.55;;;3.50;1.00;;;;;;5060388;28;20201;-83
2022/01/07 11:38:35;;;;;;;5.35;3.42;;;3.50;1.00;;;;;;5063692;28;20583;-83
2022/01/07 11:41:06;;;;;;;3.25;2.65;;;3.60;1.00;;;;;;5057645;28;20257;-83
2022/01/07 11:43:39;;;;;;;8.85;3.70;;;3.40;1.00;;;;;;5068855;28;20279;-82
2022/01/07 11:46:31;;;;;;;4.43;2.92;;;3.50;1.00;;;;;;5072253;28;20484;-82
2022/01/07 11:49:04;;;;;;;3.95;2.38;;;3.60;1.00;;;;;;5064158;28;20197;-82
2022/01/07 11:51:41;;;;;;;4.15;2.53;;;3.80;1.00;;;;;;5057793;28;20200;-82
2022/01/07 11:54:14;;;;;;;5.10;2.80;;;3.80;1.00;;;;;;5058583;28;20701;-83
2022/01/07 11:56:45;;;;;;;3.30;2.42;;;4.00;1.00;;;;;;5058791;28;20198;-83
2022/01/07 11:59:25;;;;;;;4.27;3.20;;;3.80;1.00;;;;;;5070048;28;20450;-78
2022/01/07 12:02:02;;;;;;;4.55;2.80;;;3.80;1.00;;;;;;5059979;28;20467;-83
2022/01/07 12:04:33;;;;;;;3.28;2.40;;;3.90;1.00;;;;;;5069407;28;20772;-81
2022/01/07 12:07:04;;;;;;;5.45;3.70;;;3.80;1.00;;;;;;5062596;28;20203;-82
2022/01/07 12:09:36;;;;;;;3.17;2.85;;;4.10;1.00;;;;;;5059279;28;20567;-83
2022/01/07 12:12:07;;;;;;;3.58;2.33;;;3.90;1.00;;;;;;5054360;28;20710;-85
2022/01/07 12:14:40;;;;;;;3.00;2.70;;;3.60;1.00;;;;;;5059441;28;20225;-82
2022/01/07 12:17:13;;;;;;;2.05;1.75;;;3.80;1.00;;;;;;5057903;28;20209;-84
2022/01/07 12:20:20;;;;;;;3.80;2.03;;;3.60;1.00;;;;;;5063700;28;20290;-83
2022/01/07 12:22:53;;;;;;;3.22;1.95;;;3.60;1.00;;;;;;5050193;28;20395;-83
2022/01/07 12:25:24;;;;;;;3.15;2.10;;;4.00;1.00;;;;;;5062316;28;20206;-83
2022/01/07 12:28:06;;;;;;;3.33;2.17;;;3.90;1.00;;;;;;5064782;28;20647;-83
2022/01/07 12:30:34;;;;;;;3.47;2.08;;;3.90;1.00;;;;;;5058500;28;20288;-82
2022/01/07 12:33:10;;;;;;;2.85;2.28;;;3.80;1.00;;;;;;5061228;28;20223;-78
2022/01/07 12:35:40;;;;;;;2.05;1.83;;;4.00;1.00;;;;;;5051606;28;20201;-76
2022/01/07 12:38:17;;;;;;;3.38;1.90;;;4.10;1.00;;;;;;5058888;28;20199;-78
2022/01/07 12:40:59;;;;;;;4.32;2.10;;;4.30;1.00;;;;;;5049340;28;20189;-82
2022/01/07 12:43:34;;;;;;;8.43;2.50;;;4.30;1.00;;;;;;5052731;28;20218;-82
2022/01/07 12:46:05;;;;;;;2.50;2.28;;;4.10;1.00;;;;;;5053187;28;20662;-80
2022/01/07 12:48:41;;;;;;;2.47;2.10;;;3.90;1.00;;;;;;5058008;28;20206;-83
2022/01/07 12:51:09;;;;;;;5.93;2.78;;;3.80;1.00;;;;;;5059098;28;20260;-82
2022/01/07 12:53:53;;;;;;;3.40;2.10;;;4.00;1.00;;;;;;5064639;28;20233;-82
2022/01/07 12:56:26;;;;;;;3.00;2.15;;;3.70;1.00;;;;;;5068567;28;20196;-82
2022/01/07 12:58:55;;;;;;;5.20;2.75;;;3.60;1.00;;;;;;5060574;28;20209;-82
2022/01/07 13:01:28;;;;;;;5.45;2.55;;;3.70;1.00;;;;;;5061603;28;20195;-82
2022/01/07 13:04:08;;;;;;;2.67;2.15;;;3.70;1.00;;;;;;5062160;28;20227;-82
2022/01/07 13:06:42;;;;;;;2.08;1.85;;;3.90;1.00;;;;;;5062470;28;20197;-82
2022/01/07 13:09:11;;;;;;;6.10;3.05;;;4.00;1.00;;;;;;5055319;28;20447;-82
2022/01/07 13:11:47;;;;;;;6.05;2.42;;;4.10;1.00;;;;;;5063126;28;20237;-82
2022/01/07 13:14:15;;;;;;;4.70;1.83;;;3.80;1.00;;;;;;5065305;28;20242;-82
2022/01/07 13:16:43;;;;;;;2.20;2.00;;;3.80;1.00;;;;;;5065870;28;20624;-83
2022/01/07 13:19:13;;;;;;;2.75;1.60;;;3.90;1.00;;;;;;5065681;28;20737;-82
2022/01/07 13:21:43;;;;;;;2.28;1.85;;;3.90;1.00;;;;;;5084704;28;20229;-81